sensor_id;sensor_type;location;lat;lon;timestamp;P1;durP1;ratioP1;P2;durP2;ratioP2
3781;SDS011;6881;49.962;7.718;2022-07-09T00:02:21;7.27;;;6.07;;
3781;SDS011;6881;49.962;7.718;2022-07-09T00:04:47;6.27;;;5.73;;
3781;SDS011;6881;49.962;7.718;2022-07-09T00:07:12;5.90;;;5.30;;
3781;SDS011;6881;49.962;7.718;2022-07-09T00:09:37;7.80;;;5.60;;
3781;SDS011;6881;49.962;7.718;2022-07-09T00:12:03;6.73;;;5.30;;
3781;SDS011;6881;49.962;7.718;2022-07-09T00:14:29;5.80;;;5.30;;
3781;SDS011;6881;49.962;7.718;2022-07-09T00:16:54;5.63;;;5.13;;
3781;SDS011;6881;49.962;7.718;2022-07-09T00:19:20;6.03;;;5.20;;
3781;SDS011;6881;49.962;7.718;2022-07-09T00:21:45;5.47;;;5.07;;
3781;SDS011;6881;49.962;7.718;2022-07-09T00:24:10;5.40;;;5.00;;
3781;SDS011;6881;49.962;7.718;2022-07-09T00:26:36;7.00;;;6.30;;
3781;SDS011;6881;49.962;7.718;2022-07-09T00:29:01;8.77;;;5.43;;
3781;SDS011;6881;49.962;7.718;2022-07-09T00:31:27;5.27;;;4.87;;
3781;SDS011;6881;49.962;7.718;2022-07-09T00:33:53;9.60;;;5.47;;
3781;SDS011;6881;49.962;7.718;2022-07-09T00:36:19;5.20;;;4.70;;
3781;SDS011;6881;49.962;7.718;2022-07-09T00:38:44;6.03;;;5.43;;
3781;SDS011;6881;49.962;7.718;2022-07-09T00:41:09;7.37;;;5.70;;
3781;SDS011;6881;49.962;7.718;2022-07-09T00:43:35;5.63;;;5.23;;
3781;SDS011;6881;49.962;7.718;2022-07-09T00:46:00;6.60;;;5.90;;
3781;SDS011;6881;49.962;7.718;2022-07-09T00:48:25;5.93;;;5.43;;
3781;SDS011;6881;49.962;7.718;2022-07-09T00:50:51;6.57;;;5.03;;
3781;SDS011;6881;49.962;7.718;2022-07-09T00:53:17;6.30;;;5.77;;
3781;SDS011;6881;49.962;7.718;2022-07-09T00:55:45;6.20;;;5.70;;
3781;SDS011;6881;49.962;7.718;2022-07-09T00:58:13;6.43;;;5.80;;
3781;SDS011;6881;49.962;7.718;2022-07-09T01:00:41;6.50;;;6.00;;
3781;SDS011;6881;49.962;7.718;2022-07-09T01:03:07;7.63;;;7.00;;
3781;SDS011;6881;49.962;7.718;2022-07-09T01:05:32;5.90;;;5.40;;
3781;SDS011;6881;49.962;7.718;2022-07-09T01:08:02;5.83;;;5.33;;
3781;SDS011;6881;49.962;7.718;2022-07-09T01:10:30;5.80;;;5.30;;
3781;SDS011;6881;49.962;7.718;2022-07-09T01:12:59;6.03;;;5.43;;
3781;SDS011;6881;49.962;7.718;2022-07-09T01:15:25;5.80;;;5.33;;
3781;SDS011;6881;49.962;7.718;2022-07-09T01:17:50;6.40;;;5.80;;
3781;SDS011;6881;49.962;7.718;2022-07-09T01:20:50;6.00;;;4.80;;
3781;SDS011;6881;49.962;7.718;2022-07-09T01:23:09;6.77;;;6.13;;
3781;SDS011;6881;49.962;7.718;2022-07-09T01:25:41;6.40;;;5.63;;
3781;SDS011;6881;49.962;7.718;2022-07-09T01:28:08;5.70;;;5.20;;
3781;SDS011;6881;49.962;7.718;2022-07-09T01:30:35;5.97;;;5.40;;
3781;SDS011;6881;49.962;7.718;2022-07-09T01:33:02;7.10;;;6.50;;
3781;SDS011;6881;49.962;7.718;2022-07-09T01:35:28;6.60;;;6.10;;
3781;SDS011;6881;49.962;7.718;2022-07-09T01:37:53;6.30;;;5.80;;
3781;SDS011;6881;49.962;7.718;2022-07-09T01:40:19;5.93;;;5.17;;
3781;SDS011;6881;49.962;7.718;2022-07-09T01:42:45;6.07;;;5.47;;
3781;SDS011;6881;49.962;7.718;2022-07-09T01:45:11;7.03;;;6.40;;
3781;SDS011;6881;49.962;7.718;2022-07-09T01:47:36;5.73;;;5.23;;
3781;SDS011;6881;49.962;7.718;2022-07-09T01:50:02;5.93;;;5.43;;
3781;SDS011;6881;49.962;7.718;2022-07-09T01:52:28;6.07;;;5.57;;
3781;SDS011;6881;49.962;7.718;2022-07-09T01:54:54;7.30;;;6.70;;
3781;SDS011;6881;49.962;7.718;2022-07-09T01:57:20;6.70;;;6.10;;
3781;SDS011;6881;49.962;7.718;2022-07-09T01:59:45;6.20;;;5.70;;
3781;SDS011;6881;49.962;7.718;2022-07-09T02:02:10;8.00;;;5.90;;
3781;SDS011;6881;49.962;7.718;2022-07-09T02:04:36;7.13;;;6.43;;
3781;SDS011;6881;49.962;7.718;2022-07-09T02:07:01;6.23;;;5.77;;
3781;SDS011;6881;49.962;7.718;2022-07-09T02:09:27;6.17;;;5.60;;
3781;SDS011;6881;49.962;7.718;2022-07-09T02:11:52;7.23;;;6.63;;
3781;SDS011;6881;49.962;7.718;2022-07-09T02:14:17;6.30;;;5.80;;
3781;SDS011;6881;49.962;7.718;2022-07-09T02:16:43;10.53;;;5.70;;
3781;SDS011;6881;49.962;7.718;2022-07-09T02:19:08;6.03;;;5.40;;
3781;SDS011;6881;49.962;7.718;2022-07-09T02:21:34;6.87;;;6.27;;
3781;SDS011;6881;49.962;7.718;2022-07-09T02:23:59;6.07;;;5.47;;
3781;SDS011;6881;49.962;7.718;2022-07-09T02:26:28;5.90;;;5.40;;
3781;SDS011;6881;49.962;7.718;2022-07-09T02:28:55;6.53;;;6.00;;
3781;SDS011;6881;49.962;7.718;2022-07-09T02:31:21;5.80;;;5.30;;
3781;SDS011;6881;49.962;7.718;2022-07-09T02:33:46;7.40;;;6.70;;
3781;SDS011;6881;49.962;7.718;2022-07-09T02:36:12;7.53;;;5.40;;
3781;SDS011;6881;49.962;7.718;2022-07-09T02:38:37;6.60;;;6.00;;
3781;SDS011;6881;49.962;7.718;2022-07-09T02:41:04;6.47;;;5.87;;
3781;SDS011;6881;49.962;7.718;2022-07-09T02:43:30;6.73;;;6.13;;
3781;SDS011;6881;49.962;7.718;2022-07-09T02:45:55;7.00;;;6.07;;
3781;SDS011;6881;49.962;7.718;2022-07-09T02:48:24;6.10;;;5.50;;
3781;SDS011;6881;49.962;7.718;2022-07-09T02:50:53;8.67;;;5.67;;
3781;SDS011;6881;49.962;7.718;2022-07-09T02:53:18;6.60;;;6.00;;
3781;SDS011;6881;49.962;7.718;2022-07-09T02:55:46;6.63;;;5.93;;
3781;SDS011;6881;49.962;7.718;2022-07-09T02:58:11;6.87;;;6.27;;
3781;SDS011;6881;49.962;7.718;2022-07-09T03:00:37;5.37;;;4.87;;
3781;SDS011;6881;49.962;7.718;2022-07-09T03:03:05;6.27;;;5.17;;
3781;SDS011;6881;49.962;7.718;2022-07-09T03:05:30;7.70;;;5.40;;
3781;SDS011;6881;49.962;7.718;2022-07-09T03:07:56;6.80;;;6.10;;
3781;SDS011;6881;49.962;7.718;2022-07-09T03:10:21;6.47;;;5.80;;
3781;SDS011;6881;49.962;7.718;2022-07-09T03:12:47;6.60;;;5.60;;
3781;SDS011;6881;49.962;7.718;2022-07-09T03:15:12;5.90;;;5.40;;
3781;SDS011;6881;49.962;7.718;2022-07-09T03:17:39;5.90;;;5.40;;
3781;SDS011;6881;49.962;7.718;2022-07-09T03:20:05;6.70;;;6.10;;
3781;SDS011;6881;49.962;7.718;2022-07-09T03:22:30;6.13;;;5.60;;
3781;SDS011;6881;49.962;7.718;2022-07-09T03:24:56;7.50;;;5.63;;
3781;SDS011;6881;49.962;7.718;2022-07-09T03:27:21;5.87;;;5.30;;
3781;SDS011;6881;49.962;7.718;2022-07-09T03:29:47;5.20;;;4.70;;
3781;SDS011;6881;49.962;7.718;2022-07-09T03:32:12;5.73;;;5.23;;
3781;SDS011;6881;49.962;7.718;2022-07-09T03:34:37;5.90;;;5.40;;
3781;SDS011;6881;49.962;7.718;2022-07-09T03:37:03;5.03;;;4.63;;
3781;SDS011;6881;49.962;7.718;2022-07-09T03:39:28;7.20;;;5.47;;
3781;SDS011;6881;49.962;7.718;2022-07-09T03:41:54;6.93;;;5.10;;
3781;SDS011;6881;49.962;7.718;2022-07-09T03:44:19;5.80;;;5.20;;
3781;SDS011;6881;49.962;7.718;2022-07-09T03:46:44;4.80;;;4.40;;
3781;SDS011;6881;49.962;7.718;2022-07-09T03:49:10;5.70;;;5.20;;
3781;SDS011;6881;49.962;7.718;2022-07-09T03:51:36;7.40;;;5.17;;
3781;SDS011;6881;49.962;7.718;2022-07-09T03:54:01;4.63;;;4.20;;
3781;SDS011;6881;49.962;7.718;2022-07-09T03:56:27;6.33;;;4.90;;
3781;SDS011;6881;49.962;7.718;2022-07-09T03:58:52;5.40;;;4.90;;
3781;SDS011;6881;49.962;7.718;2022-07-09T04:01:18;5.00;;;4.60;;
3781;SDS011;6881;49.962;7.718;2022-07-09T04:03:43;5.10;;;4.60;;
3781;SDS011;6881;49.962;7.718;2022-07-09T04:06:08;5.03;;;4.63;;
3781;SDS011;6881;49.962;7.718;2022-07-09T04:08:34;5.30;;;4.80;;
3781;SDS011;6881;49.962;7.718;2022-07-09T04:10:59;5.47;;;4.97;;
3781;SDS011;6881;49.962;7.718;2022-07-09T04:13:25;4.93;;;4.53;;
3781;SDS011;6881;49.962;7.718;2022-07-09T04:15:50;4.70;;;4.10;;
3781;SDS011;6881;49.962;7.718;2022-07-09T04:18:15;4.63;;;4.13;;
3781;SDS011;6881;49.962;7.718;2022-07-09T04:20:41;6.20;;;5.60;;
3781;SDS011;6881;49.962;7.718;2022-07-09T04:23:06;5.80;;;4.37;;
3781;SDS011;6881;49.962;7.718;2022-07-09T04:25:32;5.20;;;4.23;;
3781;SDS011;6881;49.962;7.718;2022-07-09T04:27:57;5.30;;;4.60;;
3781;SDS011;6881;49.962;7.718;2022-07-09T04:30:24;4.87;;;4.40;;
3781;SDS011;6881;49.962;7.718;2022-07-09T04:32:51;4.77;;;4.37;;
3781;SDS011;6881;49.962;7.718;2022-07-09T04:35:16;5.47;;;4.97;;
3781;SDS011;6881;49.962;7.718;2022-07-09T04:37:41;4.60;;;4.20;;
3781;SDS011;6881;49.962;7.718;2022-07-09T04:40:07;5.33;;;4.50;;
3781;SDS011;6881;49.962;7.718;2022-07-09T04:42:33;5.30;;;4.90;;
3781;SDS011;6881;49.962;7.718;2022-07-09T04:44:58;4.40;;;4.00;;
3781;SDS011;6881;49.962;7.718;2022-07-09T04:47:24;5.90;;;4.40;;
3781;SDS011;6881;49.962;7.718;2022-07-09T04:49:49;4.80;;;4.07;;
3781;SDS011;6881;49.962;7.718;2022-07-09T04:52:14;4.77;;;4.37;;
3781;SDS011;6881;49.962;7.718;2022-07-09T04:54:44;4.47;;;4.17;;
3781;SDS011;6881;49.962;7.718;2022-07-09T04:57:12;4.57;;;4.17;;
3781;SDS011;6881;49.962;7.718;2022-07-09T04:59:38;5.03;;;4.53;;
3781;SDS011;6881;49.962;7.718;2022-07-09T05:02:03;5.17;;;4.67;;
3781;SDS011;6881;49.962;7.718;2022-07-09T05:04:29;4.93;;;4.30;;
3781;SDS011;6881;49.962;7.718;2022-07-09T05:06:55;4.40;;;4.10;;
3781;SDS011;6881;49.962;7.718;2022-07-09T05:09:21;4.57;;;4.17;;
3781;SDS011;6881;49.962;7.718;2022-07-09T05:11:46;5.57;;;5.03;;
3781;SDS011;6881;49.962;7.718;2022-07-09T05:14:12;5.47;;;4.97;;
3781;SDS011;6881;49.962;7.718;2022-07-09T05:16:37;4.53;;;4.13;;
3781;SDS011;6881;49.962;7.718;2022-07-09T05:19:04;4.77;;;4.37;;
3781;SDS011;6881;49.962;7.718;2022-07-09T05:21:30;5.60;;;3.87;;
3781;SDS011;6881;49.962;7.718;2022-07-09T05:23:55;4.83;;;4.43;;
3781;SDS011;6881;49.962;7.718;2022-07-09T05:26:21;4.70;;;4.30;;
3781;SDS011;6881;49.962;7.718;2022-07-09T05:28:46;6.40;;;4.40;;
3781;SDS011;6881;49.962;7.718;2022-07-09T05:31:11;6.60;;;3.70;;
3781;SDS011;6881;49.962;7.718;2022-07-09T05:33:37;5.17;;;4.20;;
3781;SDS011;6881;49.962;7.718;2022-07-09T05:36:02;5.63;;;3.30;;
3781;SDS011;6881;49.962;7.718;2022-07-09T05:38:28;6.30;;;5.70;;
3781;SDS011;6881;49.962;7.718;2022-07-09T05:40:53;4.60;;;4.20;;
3781;SDS011;6881;49.962;7.718;2022-07-09T05:43:18;5.23;;;4.80;;
3781;SDS011;6881;49.962;7.718;2022-07-09T05:45:44;6.10;;;4.83;;
3781;SDS011;6881;49.962;7.718;2022-07-09T05:48:09;9.80;;;4.73;;
3781;SDS011;6881;49.962;7.718;2022-07-09T05:50:34;5.17;;;4.60;;
3781;SDS011;6881;49.962;7.718;2022-07-09T05:53:00;7.93;;;4.90;;
3781;SDS011;6881;49.962;7.718;2022-07-09T05:55:25;4.90;;;4.23;;
3781;SDS011;6881;49.962;7.718;2022-07-09T05:57:50;8.63;;;4.17;;
3781;SDS011;6881;49.962;7.718;2022-07-09T06:00:16;7.50;;;5.17;;
3781;SDS011;6881;49.962;7.718;2022-07-09T06:02:41;5.70;;;4.90;;
3781;SDS011;6881;49.962;7.718;2022-07-09T06:05:07;6.10;;;5.20;;
3781;SDS011;6881;49.962;7.718;2022-07-09T06:07:32;10.43;;;5.57;;
3781;SDS011;6881;49.962;7.718;2022-07-09T06:09:58;6.73;;;5.33;;
3781;SDS011;6881;49.962;7.718;2022-07-09T06:12:23;5.47;;;4.37;;
3781;SDS011;6881;49.962;7.718;2022-07-09T06:14:48;5.20;;;3.63;;
3781;SDS011;6881;49.962;7.718;2022-07-09T06:17:14;3.90;;;3.50;;
3781;SDS011;6881;49.962;7.718;2022-07-09T06:19:39;4.70;;;3.60;;
3781;SDS011;6881;49.962;7.718;2022-07-09T06:22:04;4.70;;;4.30;;
3781;SDS011;6881;49.962;7.718;2022-07-09T06:24:30;4.23;;;3.90;;
3781;SDS011;6881;49.962;7.718;2022-07-09T06:26:55;4.83;;;3.33;;
3781;SDS011;6881;49.962;7.718;2022-07-09T06:29:21;5.33;;;4.07;;
3781;SDS011;6881;49.962;7.718;2022-07-09T06:31:46;5.40;;;4.77;;
3781;SDS011;6881;49.962;7.718;2022-07-09T06:34:12;4.67;;;4.13;;
3781;SDS011;6881;49.962;7.718;2022-07-09T06:36:38;4.80;;;4.40;;
3781;SDS011;6881;49.962;7.718;2022-07-09T06:39:03;4.43;;;4.03;;
3781;SDS011;6881;49.962;7.718;2022-07-09T06:41:48;4.67;;;4.27;;
3781;SDS011;6881;49.962;7.718;2022-07-09T06:44:13;6.07;;;4.30;;
3781;SDS011;6881;49.962;7.718;2022-07-09T06:46:39;7.10;;;4.30;;
3781;SDS011;6881;49.962;7.718;2022-07-09T06:49:04;6.70;;;4.70;;
3781;SDS011;6881;49.962;7.718;2022-07-09T06:51:30;5.00;;;3.93;;
3781;SDS011;6881;49.962;7.718;2022-07-09T06:53:55;5.57;;;4.97;;
3781;SDS011;6881;49.962;7.718;2022-07-09T06:56:20;4.83;;;4.43;;
3781;SDS011;6881;49.962;7.718;2022-07-09T06:58:46;5.70;;;4.30;;
3781;SDS011;6881;49.962;7.718;2022-07-09T07:01:11;6.77;;;4.93;;
3781;SDS011;6881;49.962;7.718;2022-07-09T07:03:37;5.87;;;5.00;;
3781;SDS011;6881;49.962;7.718;2022-07-09T07:06:02;5.93;;;4.63;;
3781;SDS011;6881;49.962;7.718;2022-07-09T07:08:27;4.87;;;4.43;;
3781;SDS011;6881;49.962;7.718;2022-07-09T07:10:53;4.87;;;4.33;;
3781;SDS011;6881;49.962;7.718;2022-07-09T07:13:18;6.20;;;4.97;;
3781;SDS011;6881;49.962;7.718;2022-07-09T07:15:43;4.00;;;3.40;;
3781;SDS011;6881;49.962;7.718;2022-07-09T07:18:10;4.40;;;3.90;;
3781;SDS011;6881;49.962;7.718;2022-07-09T07:20:35;4.40;;;4.00;;
3781;SDS011;6881;49.962;7.718;2022-07-09T07:23:01;5.10;;;4.57;;
3781;SDS011;6881;49.962;7.718;2022-07-09T07:25:26;4.93;;;4.53;;
3781;SDS011;6881;49.962;7.718;2022-07-09T07:27:51;6.43;;;4.10;;
3781;SDS011;6881;49.962;7.718;2022-07-09T07:30:17;11.10;;;4.70;;
3781;SDS011;6881;49.962;7.718;2022-07-09T07:32:42;7.40;;;3.90;;
3781;SDS011;6881;49.962;7.718;2022-07-09T07:35:08;4.37;;;3.50;;
3781;SDS011;6881;49.962;7.718;2022-07-09T07:37:33;7.60;;;4.80;;
3781;SDS011;6881;49.962;7.718;2022-07-09T07:39:58;5.40;;;4.47;;
3781;SDS011;6881;49.962;7.718;2022-07-09T07:42:24;4.87;;;4.40;;
3781;SDS011;6881;49.962;7.718;2022-07-09T07:44:49;6.00;;;3.70;;
3781;SDS011;6881;49.962;7.718;2022-07-09T07:47:15;4.80;;;3.87;;
3781;SDS011;6881;49.962;7.718;2022-07-09T07:49:40;6.60;;;3.30;;
3781;SDS011;6881;49.962;7.718;2022-07-09T07:52:05;3.63;;;3.33;;
3781;SDS011;6881;49.962;7.718;2022-07-09T07:54:31;5.07;;;3.60;;
3781;SDS011;6881;49.962;7.718;2022-07-09T07:56:57;4.40;;;4.00;;
3781;SDS011;6881;49.962;7.718;2022-07-09T07:59:22;3.47;;;3.17;;
3781;SDS011;6881;49.962;7.718;2022-07-09T08:01:48;5.43;;;5.03;;
3781;SDS011;6881;49.962;7.718;2022-07-09T08:04:13;5.00;;;4.50;;
3781;SDS011;6881;49.962;7.718;2022-07-09T08:06:39;5.10;;;3.10;;
3781;SDS011;6881;49.962;7.718;2022-07-09T08:09:04;3.50;;;3.20;;
3781;SDS011;6881;49.962;7.718;2022-07-09T08:11:30;3.60;;;3.30;;
3781;SDS011;6881;49.962;7.718;2022-07-09T08:13:55;4.10;;;3.23;;
3781;SDS011;6881;49.962;7.718;2022-07-09T08:16:20;4.60;;;3.33;;
3781;SDS011;6881;49.962;7.718;2022-07-09T08:18:46;4.30;;;3.97;;
3781;SDS011;6881;49.962;7.718;2022-07-09T08:21:12;4.90;;;4.23;;
3781;SDS011;6881;49.962;7.718;2022-07-09T08:23:37;5.37;;;4.53;;
3781;SDS011;6881;49.962;7.718;2022-07-09T08:26:23;4.40;;;4.10;;
3781;SDS011;6881;49.962;7.718;2022-07-09T08:28:49;3.13;;;2.90;;
3781;SDS011;6881;49.962;7.718;2022-07-09T08:31:16;5.63;;;3.43;;
3781;SDS011;6881;49.962;7.718;2022-07-09T08:33:41;4.30;;;3.30;;
3781;SDS011;6881;49.962;7.718;2022-07-09T08:36:06;3.60;;;3.30;;
3781;SDS011;6881;49.962;7.718;2022-07-09T08:38:32;3.73;;;3.50;;
3781;SDS011;6881;49.962;7.718;2022-07-09T08:41:00;3.80;;;3.50;;
3781;SDS011;6881;49.962;7.718;2022-07-09T08:43:28;3.60;;;3.40;;
3781;SDS011;6881;49.962;7.718;2022-07-09T08:45:57;3.87;;;3.30;;
3781;SDS011;6881;49.962;7.718;2022-07-09T08:48:22;5.80;;;3.17;;
3781;SDS011;6881;49.962;7.718;2022-07-09T08:50:48;3.50;;;3.20;;
3781;SDS011;6881;49.962;7.718;2022-07-09T08:53:15;3.77;;;3.37;;
3781;SDS011;6881;49.962;7.718;2022-07-09T08:55:41;3.30;;;2.70;;
3781;SDS011;6881;49.962;7.718;2022-07-09T08:58:07;2.60;;;2.40;;
3781;SDS011;6881;49.962;7.718;2022-07-09T09:00:33;2.20;;;1.93;;
3781;SDS011;6881;49.962;7.718;2022-07-09T09:02:59;2.30;;;2.10;;
3781;SDS011;6881;49.962;7.718;2022-07-09T09:05:24;2.00;;;1.80;;
3781;SDS011;6881;49.962;7.718;2022-07-09T09:07:49;2.47;;;2.23;;
3781;SDS011;6881;49.962;7.718;2022-07-09T09:10:21;2.33;;;2.13;;
3781;SDS011;6881;49.962;7.718;2022-07-09T09:12:47;3.27;;;2.47;;
3781;SDS011;6881;49.962;7.718;2022-07-09T09:15:16;2.17;;;1.97;;
3781;SDS011;6881;49.962;7.718;2022-07-09T09:17:42;1.97;;;1.87;;
3781;SDS011;6881;49.962;7.718;2022-07-09T09:20:15;2.10;;;1.93;;
3781;SDS011;6881;49.962;7.718;2022-07-09T09:22:45;2.30;;;2.10;;
3781;SDS011;6881;49.962;7.718;2022-07-09T09:25:15;3.40;;;2.50;;
3781;SDS011;6881;49.962;7.718;2022-07-09T09:27:50;3.13;;;2.07;;
3781;SDS011;6881;49.962;7.718;2022-07-09T09:30:24;3.57;;;2.27;;
3781;SDS011;6881;49.962;7.718;2022-07-09T09:32:57;1.70;;;1.60;;
3781;SDS011;6881;49.962;7.718;2022-07-09T09:35:27;1.80;;;1.70;;
3781;SDS011;6881;49.962;7.718;2022-07-09T09:37:54;1.53;;;1.43;;
3781;SDS011;6881;49.962;7.718;2022-07-09T09:40:20;1.60;;;1.50;;
3781;SDS011;6881;49.962;7.718;2022-07-09T09:42:46;1.53;;;1.40;;
3781;SDS011;6881;49.962;7.718;2022-07-09T09:45:12;1.50;;;1.40;;
3781;SDS011;6881;49.962;7.718;2022-07-09T09:47:40;1.50;;;1.40;;
3781;SDS011;6881;49.962;7.718;2022-07-09T09:50:20;1.50;;;1.40;;
3781;SDS011;6881;49.962;7.718;2022-07-09T09:52:49;2.50;;;1.50;;
3781;SDS011;6881;49.962;7.718;2022-07-09T09:55:17;1.83;;;1.57;;
3781;SDS011;6881;49.962;7.718;2022-07-09T09:57:44;1.83;;;1.73;;
3781;SDS011;6881;49.962;7.718;2022-07-09T10:00:13;2.10;;;1.63;;
3781;SDS011;6881;49.962;7.718;2022-07-09T10:02:44;2.03;;;1.93;;
3781;SDS011;6881;49.962;7.718;2022-07-09T10:05:11;2.40;;;1.97;;
3781;SDS011;6881;49.962;7.718;2022-07-09T10:07:36;2.23;;;1.90;;
3781;SDS011;6881;49.962;7.718;2022-07-09T10:10:04;2.10;;;2.00;;
3781;SDS011;6881;49.962;7.718;2022-07-09T10:12:34;2.40;;;2.10;;
3781;SDS011;6881;49.962;7.718;2022-07-09T10:15:01;2.30;;;2.13;;
3781;SDS011;6881;49.962;7.718;2022-07-09T10:17:38;2.47;;;2.27;;
3781;SDS011;6881;49.962;7.718;2022-07-09T10:20:04;2.80;;;2.20;;
3781;SDS011;6881;49.962;7.718;2022-07-09T10:22:34;2.20;;;2.00;;
3781;SDS011;6881;49.962;7.718;2022-07-09T10:25:01;2.50;;;2.30;;
3781;SDS011;6881;49.962;7.718;2022-07-09T10:27:26;2.07;;;1.97;;
3781;SDS011;6881;49.962;7.718;2022-07-09T10:29:53;2.00;;;1.90;;
3781;SDS011;6881;49.962;7.718;2022-07-09T10:34:56;3.43;;;1.83;;
3781;SDS011;6881;49.962;7.718;2022-07-09T10:37:41;2.30;;;2.10;;
3781;SDS011;6881;49.962;7.718;2022-07-09T10:40:17;2.00;;;1.80;;
3781;SDS011;6881;49.962;7.718;2022-07-09T10:42:44;2.17;;;1.97;;
3781;SDS011;6881;49.962;7.718;2022-07-09T10:45:20;2.10;;;2.00;;
3781;SDS011;6881;49.962;7.718;2022-07-09T10:47:52;2.73;;;2.27;;
3781;SDS011;6881;49.962;7.718;2022-07-09T10:50:18;3.03;;;2.00;;
3781;SDS011;6881;49.962;7.718;2022-07-09T10:52:44;1.93;;;1.63;;
3781;SDS011;6881;49.962;7.718;2022-07-09T10:55:10;2.40;;;2.20;;
3781;SDS011;6881;49.962;7.718;2022-07-09T10:57:36;2.73;;;2.47;;
3781;SDS011;6881;49.962;7.718;2022-07-09T11:00:01;2.40;;;2.20;;
3781;SDS011;6881;49.962;7.718;2022-07-09T11:02:27;2.37;;;1.93;;
3781;SDS011;6881;49.962;7.718;2022-07-09T11:04:53;2.50;;;1.80;;
3781;SDS011;6881;49.962;7.718;2022-07-09T11:07:25;2.80;;;2.43;;
3781;SDS011;6881;49.962;7.718;2022-07-09T11:09:51;3.37;;;3.03;;
3781;SDS011;6881;49.962;7.718;2022-07-09T11:12:17;2.27;;;1.90;;
3781;SDS011;6881;49.962;7.718;2022-07-09T11:14:50;1.90;;;1.80;;
3781;SDS011;6881;49.962;7.718;2022-07-09T11:17:19;2.77;;;1.80;;
3781;SDS011;6881;49.962;7.718;2022-07-09T11:19:46;2.60;;;1.67;;
3781;SDS011;6881;49.962;7.718;2022-07-09T11:22:12;2.20;;;2.10;;
3781;SDS011;6881;49.962;7.718;2022-07-09T11:24:37;2.77;;;1.90;;
3781;SDS011;6881;49.962;7.718;2022-07-09T11:27:06;3.33;;;2.07;;
3781;SDS011;6881;49.962;7.718;2022-07-09T11:29:33;3.00;;;2.10;;
3781;SDS011;6881;49.962;7.718;2022-07-09T11:32:02;3.30;;;2.07;;
3781;SDS011;6881;49.962;7.718;2022-07-09T11:34:28;1.90;;;1.77;;
3781;SDS011;6881;49.962;7.718;2022-07-09T11:36:55;2.93;;;2.73;;
3781;SDS011;6881;49.962;7.718;2022-07-09T11:39:25;2.47;;;1.97;;
3781;SDS011;6881;49.962;7.718;2022-07-09T11:41:54;2.00;;;1.90;;
3781;SDS011;6881;49.962;7.718;2022-07-09T11:47:09;3.00;;;1.90;;
3781;SDS011;6881;49.962;7.718;2022-07-09T11:49:36;2.60;;;2.40;;
3781;SDS011;6881;49.962;7.718;2022-07-09T11:52:02;1.93;;;1.77;;
3781;SDS011;6881;49.962;7.718;2022-07-09T11:54:29;2.33;;;2.13;;
3781;SDS011;6881;49.962;7.718;2022-07-09T11:56:54;2.60;;;2.40;;
3781;SDS011;6881;49.962;7.718;2022-07-09T11:59:29;2.27;;;2.17;;
3781;SDS011;6881;49.962;7.718;2022-07-09T12:01:59;2.37;;;2.00;;
3781;SDS011;6881;49.962;7.718;2022-07-09T12:04:27;2.30;;;2.10;;
3781;SDS011;6881;49.962;7.718;2022-07-09T12:06:54;2.60;;;2.40;;
3781;SDS011;6881;49.962;7.718;2022-07-09T12:09:29;3.90;;;2.30;;
3781;SDS011;6881;49.962;7.718;2022-07-09T12:11:56;2.30;;;2.20;;
3781;SDS011;6881;49.962;7.718;2022-07-09T12:14:21;4.60;;;1.93;;
3781;SDS011;6881;49.962;7.718;2022-07-09T12:16:47;2.27;;;2.10;;
3781;SDS011;6881;49.962;7.718;2022-07-09T12:19:12;2.47;;;1.93;;
3781;SDS011;6881;49.962;7.718;2022-07-09T12:21:37;3.03;;;1.70;;
3781;SDS011;6881;49.962;7.718;2022-07-09T12:24:03;2.47;;;1.73;;
3781;SDS011;6881;49.962;7.718;2022-07-09T12:26:31;2.37;;;2.17;;
3781;SDS011;6881;49.962;7.718;2022-07-09T12:28:57;1.93;;;1.80;;
3781;SDS011;6881;49.962;7.718;2022-07-09T12:31:23;1.93;;;1.80;;
3781;SDS011;6881;49.962;7.718;2022-07-09T12:33:48;2.23;;;2.13;;
3781;SDS011;6881;49.962;7.718;2022-07-09T12:36:13;2.87;;;2.67;;
3781;SDS011;6881;49.962;7.718;2022-07-09T12:38:41;3.83;;;2.03;;
3781;SDS011;6881;49.962;7.718;2022-07-09T12:41:07;2.07;;;1.93;;
3781;SDS011;6881;49.962;7.718;2022-07-09T12:43:32;3.10;;;2.80;;
3781;SDS011;6881;49.962;7.718;2022-07-09T12:45:58;1.87;;;1.77;;
3781;SDS011;6881;49.962;7.718;2022-07-09T12:48:23;5.00;;;2.37;;
3781;SDS011;6881;49.962;7.718;2022-07-09T12:50:49;2.90;;;2.07;;
3781;SDS011;6881;49.962;7.718;2022-07-09T12:53:14;2.23;;;1.93;;
3781;SDS011;6881;49.962;7.718;2022-07-09T12:55:39;1.80;;;1.70;;
3781;SDS011;6881;49.962;7.718;2022-07-09T12:58:05;3.53;;;2.53;;
3781;SDS011;6881;49.962;7.718;2022-07-09T13:00:30;2.03;;;1.93;;
3781;SDS011;6881;49.962;7.718;2022-07-09T13:02:55;2.80;;;2.23;;
3781;SDS011;6881;49.962;7.718;2022-07-09T13:05:21;2.10;;;1.90;;
3781;SDS011;6881;49.962;7.718;2022-07-09T13:07:46;2.83;;;2.63;;
3781;SDS011;6881;49.962;7.718;2022-07-09T13:10:11;3.60;;;2.80;;
3781;SDS011;6881;49.962;7.718;2022-07-09T13:12:37;2.80;;;2.50;;
3781;SDS011;6881;49.962;7.718;2022-07-09T13:15:02;4.00;;;3.70;;
3781;SDS011;6881;49.962;7.718;2022-07-09T13:17:28;8.03;;;5.60;;
3781;SDS011;6881;49.962;7.718;2022-07-09T13:19:53;3.60;;;3.30;;
3781;SDS011;6881;49.962;7.718;2022-07-09T13:22:18;3.27;;;2.90;;
3781;SDS011;6881;49.962;7.718;2022-07-09T13:24:44;2.43;;;2.23;;
3781;SDS011;6881;49.962;7.718;2022-07-09T13:27:09;3.20;;;1.90;;
3781;SDS011;6881;49.962;7.718;2022-07-09T13:29:35;3.57;;;2.00;;
3781;SDS011;6881;49.962;7.718;2022-07-09T13:32:01;2.40;;;2.00;;
3781;SDS011;6881;49.962;7.718;2022-07-09T13:34:27;2.90;;;2.33;;
3781;SDS011;6881;49.962;7.718;2022-07-09T13:36:52;2.77;;;2.43;;
3781;SDS011;6881;49.962;7.718;2022-07-09T13:39:18;2.20;;;2.00;;
3781;SDS011;6881;49.962;7.718;2022-07-09T13:41:43;2.50;;;2.30;;
3781;SDS011;6881;49.962;7.718;2022-07-09T13:44:09;2.60;;;2.13;;
3781;SDS011;6881;49.962;7.718;2022-07-09T13:46:34;3.40;;;2.50;;
3781;SDS011;6881;49.962;7.718;2022-07-09T13:48:59;3.30;;;2.23;;
3781;SDS011;6881;49.962;7.718;2022-07-09T13:51:25;2.50;;;2.30;;
3781;SDS011;6881;49.962;7.718;2022-07-09T13:53:50;2.90;;;2.70;;
3781;SDS011;6881;49.962;7.718;2022-07-09T13:56:15;2.70;;;2.50;;
3781;SDS011;6881;49.962;7.718;2022-07-09T13:58:41;2.70;;;2.50;;
3781;SDS011;6881;49.962;7.718;2022-07-09T14:01:07;2.27;;;2.00;;
3781;SDS011;6881;49.962;7.718;2022-07-09T14:03:32;3.33;;;2.50;;
3781;SDS011;6881;49.962;7.718;2022-07-09T14:05:58;2.27;;;2.03;;
3781;SDS011;6881;49.962;7.718;2022-07-09T14:08:23;2.37;;;2.17;;
3781;SDS011;6881;49.962;7.718;2022-07-09T14:10:52;2.93;;;2.67;;
3781;SDS011;6881;49.962;7.718;2022-07-09T14:13:23;2.87;;;2.40;;
3781;SDS011;6881;49.962;7.718;2022-07-09T14:15:50;4.13;;;2.50;;
3781;SDS011;6881;49.962;7.718;2022-07-09T14:18:18;3.13;;;2.53;;
3781;SDS011;6881;49.962;7.718;2022-07-09T14:20:43;2.70;;;2.50;;
3781;SDS011;6881;49.962;7.718;2022-07-09T14:23:08;2.60;;;2.40;;
3781;SDS011;6881;49.962;7.718;2022-07-09T14:25:34;2.40;;;2.20;;
3781;SDS011;6881;49.962;7.718;2022-07-09T14:27:59;2.77;;;2.57;;
3781;SDS011;6881;49.962;7.718;2022-07-09T14:30:24;2.13;;;1.77;;
3781;SDS011;6881;49.962;7.718;2022-07-09T14:32:50;2.40;;;2.20;;
3781;SDS011;6881;49.962;7.718;2022-07-09T14:35:15;2.40;;;2.20;;
3781;SDS011;6881;49.962;7.718;2022-07-09T14:37:41;3.63;;;2.03;;
3781;SDS011;6881;49.962;7.718;2022-07-09T14:40:06;2.40;;;2.20;;
3781;SDS011;6881;49.962;7.718;2022-07-09T14:42:32;2.30;;;2.10;;
3781;SDS011;6881;49.962;7.718;2022-07-09T14:44:58;2.93;;;2.33;;
3781;SDS011;6881;49.962;7.718;2022-07-09T14:47:24;4.33;;;2.90;;
3781;SDS011;6881;49.962;7.718;2022-07-09T14:49:49;2.53;;;2.33;;
3781;SDS011;6881;49.962;7.718;2022-07-09T14:52:15;3.10;;;2.07;;
3781;SDS011;6881;49.962;7.718;2022-07-09T14:54:41;2.23;;;2.13;;
3781;SDS011;6881;49.962;7.718;2022-07-09T14:57:06;4.87;;;2.20;;
3781;SDS011;6881;49.962;7.718;2022-07-09T14:59:32;2.83;;;2.20;;
3781;SDS011;6881;49.962;7.718;2022-07-09T15:01:57;2.20;;;2.07;;
3781;SDS011;6881;49.962;7.718;2022-07-09T15:04:23;7.10;;;2.10;;
3781;SDS011;6881;49.962;7.718;2022-07-09T15:06:48;2.40;;;2.20;;
3781;SDS011;6881;49.962;7.718;2022-07-09T15:09:13;2.80;;;2.60;;
3781;SDS011;6881;49.962;7.718;2022-07-09T15:11:39;2.60;;;2.40;;
3781;SDS011;6881;49.962;7.718;2022-07-09T15:14:04;2.50;;;2.33;;
3781;SDS011;6881;49.962;7.718;2022-07-09T15:16:29;2.73;;;2.53;;